sensor_id;sensor_type;location;lat;lon;timestamp;temperature;humidity
36800;DHT22;22752;51.960;5.886;2023-04-03T00:01:33;4.60;99.90
36800;DHT22;22752;51.960;5.886;2023-04-03T00:03:59;4.50;99.90
36800;DHT22;22752;51.960;5.886;2023-04-03T00:06:25;4.50;99.90
36800;DHT22;22752;51.960;5.886;2023-04-03T00:08:52;4.50;99.90
36800;DHT22;22752;51.960;5.886;2023-04-03T00:11:18;4.60;99.90
36800;DHT22;22752;51.960;5.886;2023-04-03T00:13:45;4.60;99.90
36800;DHT22;22752;51.960;5.886;2023-04-03T00:16:11;4.60;99.90
36800;DHT22;22752;51.960;5.886;2023-04-03T00:18:37;4.50;99.90
36800;DHT22;22752;51.960;5.886;2023-04-03T00:21:04;4.50;99.90
36800;DHT22;22752;51.960;5.886;2023-04-03T00:23:29;4.50;99.90
36800;DHT22;22752;51.960;5.886;2023-04-03T00:25:55;4.50;99.90
36800;DHT22;22752;51.960;5.886;2023-04-03T00:28:21;4.50;99.90
36800;DHT22;22752;51.960;5.886;2023-04-03T00:30:48;4.50;99.90
36800;DHT22;22752;51.960;5.886;2023-04-03T00:33:14;4.50;99.90
36800;DHT22;22752;51.960;5.886;2023-04-03T00:35:40;4.50;99.90
36800;DHT22;22752;51.960;5.886;2023-04-03T00:38:06;4.50;99.90
36800;DHT22;22752;51.960;5.886;2023-04-03T00:40:42;4.50;99.90
36800;DHT22;22752;51.960;5.886;2023-04-03T00:43:20;4.50;99.90
36800;DHT22;22752;51.960;5.886;2023-04-03T00:45:51;4.40;99.90
36800;DHT22;22752;51.960;5.886;2023-04-03T00:48:23;4.40;99.90
36800;DHT22;22752;51.960;5.886;2023-04-03T00:50:50;4.40;99.90
36800;DHT22;22752;51.960;5.886;2023-04-03T00:53:19;4.40;99.90
36800;DHT22;22752;51.960;5.886;2023-04-03T00:55:48;4.30;99.90
36800;DHT22;22752;51.960;5.886;2023-04-03T00:58:16;4.30;99.90
36800;DHT22;22752;51.960;5.886;2023-04-03T01:00:48;4.30;99.90
36800;DHT22;22752;51.960;5.886;2023-04-03T01:03:15;4.20;99.90
36800;DHT22;22752;51.960;5.886;2023-04-03T01:05:40;4.20;99.90
36800;DHT22;22752;51.960;5.886;2023-04-03T01:08:06;4.20;99.90
36800;DHT22;22752;51.960;5.886;2023-04-03T01:10:32;4.20;99.90
36800;DHT22;22752;51.960;5.886;2023-04-03T01:12:59;4.10;99.90
36800;DHT22;22752;51.960;5.886;2023-04-03T01:15:27;4.10;99.90
36800;DHT22;22752;51.960;5.886;2023-04-03T01:17:57;4.10;99.90
36800;DHT22;22752;51.960;5.886;2023-04-03T01:25:39;4.00;99.90
36800;DHT22;22752;51.960;5.886;2023-04-03T01:28:07;4.00;99.90
36800;DHT22;22752;51.960;5.886;2023-04-03T01:30:46;3.90;99.90
36800;DHT22;22752;51.960;5.886;2023-04-03T01:33:14;3.90;99.90
36800;DHT22;22752;51.960;5.886;2023-04-03T01:35:39;3.90;99.90
36800;DHT22;22752;51.960;5.886;2023-04-03T01:38:05;3.90;99.90
36800;DHT22;22752;51.960;5.886;2023-04-03T01:40:31;3.90;99.90
36800;DHT22;22752;51.960;5.886;2023-04-03T01:42:57;3.90;99.90
36800;DHT22;22752;51.960;5.886;2023-04-03T01:45:23;3.80;99.90
36800;DHT22;22752;51.960;5.886;2023-04-03T01:47:49;3.80;99.90
36800;DHT22;22752;51.960;5.886;2023-04-03T01:50:15;3.80;99.90
36800;DHT22;22752;51.960;5.886;2023-04-03T01:52:40;3.70;99.90
36800;DHT22;22752;51.960;5.886;2023-04-03T01:55:06;3.70;99.90
36800;DHT22;22752;51.960;5.886;2023-04-03T01:57:32;3.70;99.90
36800;DHT22;22752;51.960;5.886;2023-04-03T01:59:57;3.70;99.90
36800;DHT22;22752;51.960;5.886;2023-04-03T02:02:23;3.60;99.90
36800;DHT22;22752;51.960;5.886;2023-04-03T02:04:49;3.70;99.90
36800;DHT22;22752;51.960;5.886;2023-04-03T02:07:14;3.60;99.90
36800;DHT22;22752;51.960;5.886;2023-04-03T02:09:40;3.50;99.90
36800;DHT22;22752;51.960;5.886;2023-04-03T02:12:06;3.50;99.90
36800;DHT22;22752;51.960;5.886;2023-04-03T02:14:32;3.50;99.90
36800;DHT22;22752;51.960;5.886;2023-04-03T02:16:58;3.50;99.90
36800;DHT22;22752;51.960;5.886;2023-04-03T02:19:26;3.50;99.90
36800;DHT22;22752;51.960;5.886;2023-04-03T02:21:52;3.50;99.90
36800;DHT22;22752;51.960;5.886;2023-04-03T02:24:17;3.60;99.90
36800;DHT22;22752;51.960;5.886;2023-04-03T02:26:43;3.60;99.90
36800;DHT22;22752;51.960;5.886;2023-04-03T02:29:08;3.50;99.90
36800;DHT22;22752;51.960;5.886;2023-04-03T02:31:34;3.40;99.90
36800;DHT22;22752;51.960;5.886;2023-04-03T02:34:00;3.40;99.90
36800;DHT22;22752;51.960;5.886;2023-04-03T02:36:25;3.40;99.90
36800;DHT22;22752;51.960;5.886;2023-04-03T02:38:51;3.40;99.90
36800;DHT22;22752;51.960;5.886;2023-04-03T02:41:17;3.40;99.90
36800;DHT22;22752;51.960;5.886;2023-04-03T02:43:42;3.30;99.90
36800;DHT22;22752;51.960;5.886;2023-04-03T02:46:08;3.40;99.90
36800;DHT22;22752;51.960;5.886;2023-04-03T02:48:34;3.30;99.90
36800;DHT22;22752;51.960;5.886;2023-04-03T02:51:00;3.40;99.90
36800;DHT22;22752;51.960;5.886;2023-04-03T02:53:26;3.30;99.90
36800;DHT22;22752;51.960;5.886;2023-04-03T02:55:52;3.30;99.90
36800;DHT22;22752;51.960;5.886;2023-04-03T02:58:17;3.30;99.90
36800;DHT22;22752;51.960;5.886;2023-04-03T03:00:43;3.30;99.90
36800;DHT22;22752;51.960;5.886;2023-04-03T03:03:09;3.30;99.90
36800;DHT22;22752;51.960;5.886;2023-04-03T03:05:34;3.30;99.90
36800;DHT22;22752;51.960;5.886;2023-04-03T03:08:01;3.30;99.90
36800;DHT22;22752;51.960;5.886;2023-04-03T03:10:27;3.30;99.90
36800;DHT22;22752;51.960;5.886;2023-04-03T03:12:52;3.30;99.90
36800;DHT22;22752;51.960;5.886;2023-04-03T03:15:18;3.30;99.90
36800;DHT22;22752;51.960;5.886;2023-04-03T03:17:44;3.30;99.90
36800;DHT22;22752;51.960;5.886;2023-04-03T03:20:11;3.30;99.90
36800;DHT22;22752;51.960;5.886;2023-04-03T03:22:37;3.20;99.90
36800;DHT22;22752;51.960;5.886;2023-04-03T03:25:03;3.20;99.90
36800;DHT22;22752;51.960;5.886;2023-04-03T03:27:29;3.20;99.90
36800;DHT22;22752;51.960;5.886;2023-04-03T03:29:55;3.20;99.90
36800;DHT22;22752;51.960;5.886;2023-04-03T03:32:20;3.20;99.90
36800;DHT22;22752;51.960;5.886;2023-04-03T03:34:46;3.10;99.90
36800;DHT22;22752;51.960;5.886;2023-04-03T03:37:12;3.10;99.90
36800;DHT22;22752;51.960;5.886;2023-04-03T03:39:37;3.10;99.90
36800;DHT22;22752;51.960;5.886;2023-04-03T03:42:03;3.10;99.90
36800;DHT22;22752;51.960;5.886;2023-04-03T03:44:29;3.00;99.90
36800;DHT22;22752;51.960;5.886;2023-04-03T03:46:55;3.10;99.90
36800;DHT22;22752;51.960;5.886;2023-04-03T03:49:20;3.00;99.90
36800;DHT22;22752;51.960;5.886;2023-04-03T03:51:46;3.00;99.90
36800;DHT22;22752;51.960;5.886;2023-04-03T03:54:12;3.00;99.90
36800;DHT22;22752;51.960;5.886;2023-04-03T03:56:38;2.90;99.90
36800;DHT22;22752;51.960;5.886;2023-04-03T03:59:05;2.90;99.90
36800;DHT22;22752;51.960;5.886;2023-04-03T04:01:31;2.90;99.90
36800;DHT22;22752;51.960;5.886;2023-04-03T04:03:56;2.90;99.90
36800;DHT22;22752;51.960;5.886;2023-04-03T04:06:22;2.90;99.90
36800;DHT22;22752;51.960;5.886;2023-04-03T04:08:48;2.90;99.90
36800;DHT22;22752;51.960;5.886;2023-04-03T04:11:14;2.90;99.90
36800;DHT22;22752;51.960;5.886;2023-04-03T04:13:40;2.80;99.90
36800;DHT22;22752;51.960;5.886;2023-04-03T04:16:06;2.80;99.90
36800;DHT22;22752;51.960;5.886;2023-04-03T04:18:32;2.80;99.90
36800;DHT22;22752;51.960;5.886;2023-04-03T04:20:58;2.70;99.90
36800;DHT22;22752;51.960;5.886;2023-04-03T04:23:24;2.80;99.90
36800;DHT22;22752;51.960;5.886;2023-04-03T04:25:49;2.70;99.90
36800;DHT22;22752;51.960;5.886;2023-04-03T04:28:15;2.80;99.90
36800;DHT22;22752;51.960;5.886;2023-04-03T04:30:41;2.70;99.90
36800;DHT22;22752;51.960;5.886;2023-04-03T04:33:07;2.60;99.90
36800;DHT22;22752;51.960;5.886;2023-04-03T04:35:33;2.60;99.90
36800;DHT22;22752;51.960;5.886;2023-04-03T04:37:59;2.60;99.90
36800;DHT22;22752;51.960;5.886;2023-04-03T04:40:25;2.70;99.90
36800;DHT22;22752;51.960;5.886;2023-04-03T04:42:51;2.60;99.90
36800;DHT22;22752;51.960;5.886;2023-04-03T04:45:17;2.50;99.90
36800;DHT22;22752;51.960;5.886;2023-04-03T04:47:43;2.50;99.90
36800;DHT22;22752;51.960;5.886;2023-04-03T04:50:09;2.50;99.90
36800;DHT22;22752;51.960;5.886;2023-04-03T04:52:35;2.50;99.90
36800;DHT22;22752;51.960;5.886;2023-04-03T04:55:00;2.40;99.90
36800;DHT22;22752;51.960;5.886;2023-04-03T04:57:26;2.40;99.90
36800;DHT22;22752;51.960;5.886;2023-04-03T04:59:52;2.40;99.90
36800;DHT22;22752;51.960;5.886;2023-04-03T05:02:17;2.40;99.90
36800;DHT22;22752;51.960;5.886;2023-04-03T05:04:43;2.30;99.90
36800;DHT22;22752;51.960;5.886;2023-04-03T05:07:09;2.30;99.90
36800;DHT22;22752;51.960;5.886;2023-04-03T05:09:35;2.30;99.90
36800;DHT22;22752;51.960;5.886;2023-04-03T05:12:00;2.40;99.90
36800;DHT22;22752;51.960;5.886;2023-04-03T05:14:27;2.40;99.90
36800;DHT22;22752;51.960;5.886;2023-04-03T05:16:52;2.40;99.90
36800;DHT22;22752;51.960;5.886;2023-04-03T05:19:20;2.30;99.90
36800;DHT22;22752;51.960;5.886;2023-04-03T05:21:46;2.30;99.90
36800;DHT22;22752;51.960;5.886;2023-04-03T05:24:12;2.30;99.90
36800;DHT22;22752;51.960;5.886;2023-04-03T05:26:38;2.30;99.90
36800;DHT22;22752;51.960;5.886;2023-04-03T05:29:03;2.20;99.90
36800;DHT22;22752;51.960;5.886;2023-04-03T05:31:29;2.20;99.90
36800;DHT22;22752;51.960;5.886;2023-04-03T05:33:55;2.30;99.90
36800;DHT22;22752;51.960;5.886;2023-04-03T05:36:21;2.20;99.90
36800;DHT22;22752;51.960;5.886;2023-04-03T05:38:47;2.30;99.90
36800;DHT22;22752;51.960;5.886;2023-04-03T05:41:14;2.30;99.90
36800;DHT22;22752;51.960;5.886;2023-04-03T05:43:40;2.30;99.90
36800;DHT22;22752;51.960;5.886;2023-04-03T05:46:16;2.40;99.90
36800;DHT22;22752;51.960;5.886;2023-04-03T05:48:42;2.50;99.90
36800;DHT22;22752;51.960;5.886;2023-04-03T05:51:17;2.50;99.90
36800;DHT22;22752;51.960;5.886;2023-04-03T05:53:44;2.60;99.90
36800;DHT22;22752;51.960;5.886;2023-04-03T05:56:11;2.90;99.90
36800;DHT22;22752;51.960;5.886;2023-04-03T05:58:37;3.10;99.90
36800;DHT22;22752;51.960;5.886;2023-04-03T06:01:02;3.40;99.90
36800;DHT22;22752;51.960;5.886;2023-04-03T06:03:28;3.60;99.90
36800;DHT22;22752;51.960;5.886;2023-04-03T06:05:54;4.00;99.90
36800;DHT22;22752;51.960;5.886;2023-04-03T06:08:19;4.60;99.90
36800;DHT22;22752;51.960;5.886;2023-04-03T06:10:45;5.10;99.90
36800;DHT22;22752;51.960;5.886;2023-04-03T06:13:11;5.40;99.90
36800;DHT22;22752;51.960;5.886;2023-04-03T06:15:37;5.70;99.90
36800;DHT22;22752;51.960;5.886;2023-04-03T06:18:05;5.80;99.90
36800;DHT22;22752;51.960;5.886;2023-04-03T06:20:30;6.10;99.90
36800;DHT22;22752;51.960;5.886;2023-04-03T06:22:56;6.40;99.90
36800;DHT22;22752;51.960;5.886;2023-04-03T06:25:22;6.60;99.90
36800;DHT22;22752;51.960;5.886;2023-04-03T06:27:48;6.70;99.90
36800;DHT22;22752;51.960;5.886;2023-04-03T06:30:14;6.90;99.90
36800;DHT22;22752;51.960;5.886;2023-04-03T06:32:39;7.00;99.90
36800;DHT22;22752;51.960;5.886;2023-04-03T06:35:06;7.20;99.90
36800;DHT22;22752;51.960;5.886;2023-04-03T06:37:32;7.40;99.90
36800;DHT22;22752;51.960;5.886;2023-04-03T06:39:58;7.60;99.90
36800;DHT22;22752;51.960;5.886;2023-04-03T06:42:25;7.70;99.90
36800;DHT22;22752;51.960;5.886;2023-04-03T06:44:51;7.70;99.90
36800;DHT22;22752;51.960;5.886;2023-04-03T06:47:17;7.70;99.90
36800;DHT22;22752;51.960;5.886;2023-04-03T06:49:44;7.80;99.90
36800;DHT22;22752;51.960;5.886;2023-04-03T06:52:10;7.90;99.90
36800;DHT22;22752;51.960;5.886;2023-04-03T06:54:38;8.10;99.90
36800;DHT22;22752;51.960;5.886;2023-04-03T06:57:03;8.20;99.90
36800;DHT22;22752;51.960;5.886;2023-04-03T06:59:29;8.40;99.90
36800;DHT22;22752;51.960;5.886;2023-04-03T07:01:55;8.40;99.90
36800;DHT22;22752;51.960;5.886;2023-04-03T07:04:21;8.30;99.90
36800;DHT22;22752;51.960;5.886;2023-04-03T07:06:47;8.40;99.90
36800;DHT22;22752;51.960;5.886;2023-04-03T07:09:14;8.30;99.90
36800;DHT22;22752;51.960;5.886;2023-04-03T07:11:40;8.40;99.90
36800;DHT22;22752;51.960;5.886;2023-04-03T07:14:06;8.20;99.90
36800;DHT22;22752;51.960;5.886;2023-04-03T07:16:33;8.30;99.90
36800;DHT22;22752;51.960;5.886;2023-04-03T07:18:59;8.20;99.90
36800;DHT22;22752;51.960;5.886;2023-04-03T07:21:25;8.10;99.90
36800;DHT22;22752;51.960;5.886;2023-04-03T07:23:51;8.00;99.90
36800;DHT22;22752;51.960;5.886;2023-04-03T07:26:17;8.00;99.90
36800;DHT22;22752;51.960;5.886;2023-04-03T07:28:43;8.20;99.90
36800;DHT22;22752;51.960;5.886;2023-04-03T07:31:13;8.40;99.90
36800;DHT22;22752;51.960;5.886;2023-04-03T07:33:39;8.40;99.90
36800;DHT22;22752;51.960;5.886;2023-04-03T07:36:06;8.40;99.90
36800;DHT22;22752;51.960;5.886;2023-04-03T07:38:33;8.30;99.90
36800;DHT22;22752;51.960;5.886;2023-04-03T07:40:59;8.30;99.90
36800;DHT22;22752;51.960;5.886;2023-04-03T07:43:25;8.40;99.90
36800;DHT22;22752;51.960;5.886;2023-04-03T07:45:50;8.60;99.90
36800;DHT22;22752;51.960;5.886;2023-04-03T07:48:24;8.40;99.90
36800;DHT22;22752;51.960;5.886;2023-04-03T07:50:51;8.30;99.90
36800;DHT22;22752;51.960;5.886;2023-04-03T07:53:17;8.40;99.90
36800;DHT22;22752;51.960;5.886;2023-04-03T07:55:45;8.50;99.90
36800;DHT22;22752;51.960;5.886;2023-04-03T07:58:13;8.70;99.90
36800;DHT22;22752;51.960;5.886;2023-04-03T08:00:40;8.60;99.90
36800;DHT22;22752;51.960;5.886;2023-04-03T08:03:08;8.60;99.90
36800;DHT22;22752;51.960;5.886;2023-04-03T08:05:39;8.70;99.90
36800;DHT22;22752;51.960;5.886;2023-04-03T08:08:05;8.80;99.90
36800;DHT22;22752;51.960;5.886;2023-04-03T08:10:31;8.90;99.90
36800;DHT22;22752;51.960;5.886;2023-04-03T08:12:58;9.00;99.60
36800;DHT22;22752;51.960;5.886;2023-04-03T08:15:23;9.20;99.90
36800;DHT22;22752;51.960;5.886;2023-04-03T08:17:49;9.40;99.50
36800;DHT22;22752;51.960;5.886;2023-04-03T08:20:15;9.50;98.60
36800;DHT22;22752;51.960;5.886;2023-04-03T08:22:41;9.40;97.60
36800;DHT22;22752;51.960;5.886;2023-04-03T08:25:07;9.30;97.90
36800;DHT22;22752;51.960;5.886;2023-04-03T08:27:33;9.30;98.10
36800;DHT22;22752;51.960;5.886;2023-04-03T08:29:59;9.30;97.70
36800;DHT22;22752;51.960;5.886;2023-04-03T08:32:25;9.50;97.60
36800;DHT22;22752;51.960;5.886;2023-04-03T08:34:51;9.70;97.20
36800;DHT22;22752;51.960;5.886;2023-04-03T08:37:17;9.60;95.40
36800;DHT22;22752;51.960;5.886;2023-04-03T08:39:43;9.30;94.30
36800;DHT22;22752;51.960;5.886;2023-04-03T08:48:07;8.30;95.50
36800;DHT22;22752;51.960;5.886;2023-04-03T08:50:43;8.00;95.00
36800;DHT22;22752;51.960;5.886;2023-04-03T08:53:23;7.70;95.20
36800;DHT22;22752;51.960;5.886;2023-04-03T08:55:51;7.60;95.90
36800;DHT22;22752;51.960;5.886;2023-04-03T09:01:17;7.40;95.30
36800;DHT22;22752;51.960;5.886;2023-04-03T09:03:43;7.40;95.00
36800;DHT22;22752;51.960;5.886;2023-04-03T09:06:26;7.30;94.70
36800;DHT22;22752;51.960;5.886;2023-04-03T09:12:03;7.30;94.30
36800;DHT22;22752;51.960;5.886;2023-04-03T09:22:51;7.50;91.50
36800;DHT22;22752;51.960;5.886;2023-04-03T09:25:27;7.50;88.30
36800;DHT22;22752;51.960;5.886;2023-04-03T09:27:53;7.50;87.40
36800;DHT22;22752;51.960;5.886;2023-04-03T09:30:21;7.30;87.00
36800;DHT22;22752;51.960;5.886;2023-04-03T09:32:51;7.30;87.40
36800;DHT22;22752;51.960;5.886;2023-04-03T09:37:53;7.50;86.00
36800;DHT22;22752;51.960;5.886;2023-04-03T09:40:32;7.60;87.20
36800;DHT22;22752;51.960;5.886;2023-04-03T09:45:48;7.60;83.00
36800;DHT22;22752;51.960;5.886;2023-04-03T09:48:16;7.50;85.10
36800;DHT22;22752;51.960;5.886;2023-04-03T09:51:03;7.60;86.90
36800;DHT22;22752;51.960;5.886;2023-04-03T09:53:41;7.70;85.00
36800;DHT22;22752;51.960;5.886;2023-04-03T09:58:44;7.70;81.40
36800;DHT22;22752;51.960;5.886;2023-04-03T10:01:31;7.70;85.60
36800;DHT22;22752;51.960;5.886;2023-04-03T10:06:46;7.80;85.70
36800;DHT22;22752;51.960;5.886;2023-04-03T10:09:30;7.80;82.60
36800;DHT22;22752;51.960;5.886;2023-04-03T10:12:10;7.70;82.60
36800;DHT22;22752;51.960;5.886;2023-04-03T10:14:55;7.80;81.40
36800;DHT22;22752;51.960;5.886;2023-04-03T10:23:00;7.80;80.90
36800;DHT22;22752;51.960;5.886;2023-04-03T10:28:03;8.00;80.00
36800;DHT22;22752;51.960;5.886;2023-04-03T10:30:36;7.90;79.60
36800;DHT22;22752;51.960;5.886;2023-04-03T10:33:23;7.90;81.40
36800;DHT22;22752;51.960;5.886;2023-04-03T10:38:33;7.90;80.70
36800;DHT22;22752;51.960;5.886;2023-04-03T10:43:59;8.00;82.80
36800;DHT22;22752;51.960;5.886;2023-04-03T10:46:52;8.20;82.50
36800;DHT22;22752;51.960;5.886;2023-04-03T10:55:02;8.30;83.00
36800;DHT22;22752;51.960;5.886;2023-04-03T10:57:30;8.30;81.50
36800;DHT22;22752;51.960;5.886;2023-04-03T11:00:07;8.50;85.40
36800;DHT22;22752;51.960;5.886;2023-04-03T11:05:30;8.50;81.40
36800;DHT22;22752;51.960;5.886;2023-04-03T11:08:02;8.50;81.10
36800;DHT22;22752;51.960;5.886;2023-04-03T11:10:44;8.50;81.50
36800;DHT22;22752;51.960;5.886;2023-04-03T11:13:15;8.50;82.80
36800;DHT22;22752;51.960;5.886;2023-04-03T11:15:43;8.60;77.10
36800;DHT22;22752;51.960;5.886;2023-04-03T11:18:22;8.60;79.70
36800;DHT22;22752;51.960;5.886;2023-04-03T11:21:00;8.50;79.90
36800;DHT22;22752;51.960;5.886;2023-04-03T11:23:33;8.60;78.30
36800;DHT22;22752;51.960;5.886;2023-04-03T11:26:10;8.60;79.00
36800;DHT22;22752;51.960;5.886;2023-04-03T11:28:37;8.60;77.00
36800;DHT22;22752;51.960;5.886;2023-04-03T11:34:09;8.60;79.50
36800;DHT22;22752;51.960;5.886;2023-04-03T11:37:00;8.60;78.80
36800;DHT22;22752;51.960;5.886;2023-04-03T11:39:30;8.70;79.10
36800;DHT22;22752;51.960;5.886;2023-04-03T11:42:16;8.70;80.90
36800;DHT22;22752;51.960;5.886;2023-04-03T11:44:43;8.70;79.00
36800;DHT22;22752;51.960;5.886;2023-04-03T11:47:11;8.80;80.80
36800;DHT22;22752;51.960;5.886;2023-04-03T11:50:02;8.80;79.00
36800;DHT22;22752;51.960;5.886;2023-04-03T12:05:48;8.90;78.10
36800;DHT22;22752;51.960;5.886;2023-04-03T12:08:28;8.80;78.90
36800;DHT22;22752;51.960;5.886;2023-04-03T12:16:24;8.80;79.10
36800;DHT22;22752;51.960;5.886;2023-04-03T12:27:16;8.80;78.90
36800;DHT22;22752;51.960;5.886;2023-04-03T12:30:00;8.90;79.60
36800;DHT22;22752;51.960;5.886;2023-04-03T12:32:47;8.90;79.90
36800;DHT22;22752;51.960;5.886;2023-04-03T12:36:06;9.00;80.40
36800;DHT22;22752;51.960;5.886;2023-04-03T12:47:31;9.20;80.70
36800;DHT22;22752;51.960;5.886;2023-04-03T12:49:54;9.20;80.70
36800;DHT22;22752;51.960;5.886;2023-04-03T12:55:17;9.10;82.50
36800;DHT22;22752;51.960;5.886;2023-04-03T12:57:43;9.20;79.80
36800;DHT22;22752;51.960;5.886;2023-04-03T13:00:31;9.10;79.70
36800;DHT22;22752;51.960;5.886;2023-04-03T13:02:59;9.10;78.40
36800;DHT22;22752;51.960;5.886;2023-04-03T13:05:25;9.10;81.90
36800;DHT22;22752;51.960;5.886;2023-04-03T13:08:02;9.20;81.20
36800;DHT22;22752;51.960;5.886;2023-04-03T13:10:29;9.30;82.90
36800;DHT22;22752;51.960;5.886;2023-04-03T13:12:57;9.50;79.70
36800;DHT22;22752;51.960;5.886;2023-04-03T13:15:39;9.40;78.10
36800;DHT22;22752;51.960;5.886;2023-04-03T13:18:20;9.30;78.40
36800;DHT22;22752;51.960;5.886;2023-04-03T13:20:48;9.20;80.20
36800;DHT22;22752;51.960;5.886;2023-04-03T13:23:15;9.40;81.80
36800;DHT22;22752;51.960;5.886;2023-04-03T13:25:44;9.40;79.70
36800;DHT22;22752;51.960;5.886;2023-04-03T13:28:14;9.40;79.10
36800;DHT22;22752;51.960;5.886;2023-04-03T13:30:55;9.40;80.00
36800;DHT22;22752;51.960;5.886;2023-04-03T13:33:25;9.30;80.40
36800;DHT22;22752;51.960;5.886;2023-04-03T13:36:04;9.20;80.30
36800;DHT22;22752;51.960;5.886;2023-04-03T13:38:32;9.30;80.50
36800;DHT22;22752;51.960;5.886;2023-04-03T13:41:04;9.30;82.20
36800;DHT22;22752;51.960;5.886;2023-04-03T13:43:33;9.40;81.40
36800;DHT22;22752;51.960;5.886;2023-04-03T13:48:49;9.50;82.10
36800;DHT22;22752;51.960;5.886;2023-04-03T13:53:51;9.40;79.60
36800;DHT22;22752;51.960;5.886;2023-04-03T13:56:27;9.40;79.70
36800;DHT22;22752;51.960;5.886;2023-04-03T13:59:02;9.30;79.20
36800;DHT22;22752;51.960;5.886;2023-04-03T14:06:38;9.30;81.90
36800;DHT22;22752;51.960;5.886;2023-04-03T14:09:03;9.30;82.50
36800;DHT22;22752;51.960;5.886;2023-04-03T14:11:30;9.40;81.60
36800;DHT22;22752;51.960;5.886;2023-04-03T14:14:01;9.40;82.10
36800;DHT22;22752;51.960;5.886;2023-04-03T14:16:32;9.40;80.90
36800;DHT22;22752;51.960;5.886;2023-04-03T14:18:58;9.30;81.60
36800;DHT22;22752;51.960;5.886;2023-04-03T14:21:24;9.30;80.70
36800;DHT22;22752;51.960;5.886;2023-04-03T14:23:49;9.30;82.10
36800;DHT22;22752;51.960;5.886;2023-04-03T14:26:21;9.40;81.60
36800;DHT22;22752;51.960;5.886;2023-04-03T14:28:51;9.40;82.40
36800;DHT22;22752;51.960;5.886;2023-04-03T14:31:17;9.40;84.50
36800;DHT22;22752;51.960;5.886;2023-04-03T14:33:43;9.30;82.30
36800;DHT22;22752;51.960;5.886;2023-04-03T14:38:37;9.40;84.80
36800;DHT22;22752;51.960;5.886;2023-04-03T14:41:03;9.40;83.80
36800;DHT22;22752;51.960;5.886;2023-04-03T14:43:29;9.40;83.10
36800;DHT22;22752;51.960;5.886;2023-04-03T14:45:54;9.30;83.40
36800;DHT22;22752;51.960;5.886;2023-04-03T14:48:23;9.40;83.50
36800;DHT22;22752;51.960;5.886;2023-04-03T14:50:50;9.30;82.20
36800;DHT22;22752;51.960;5.886;2023-04-03T14:53:17;9.20;82.60
36800;DHT22;22752;51.960;5.886;2023-04-03T14:55:47;9.20;84.00
36800;DHT22;22752;51.960;5.886;2023-04-03T14:58:16;9.20;84.00
36800;DHT22;22752;51.960;5.886;2023-04-03T15:00:43;9.20;82.90
36800;DHT22;22752;51.960;5.886;2023-04-03T15:03:16;9.10;83.50
36800;DHT22;22752;51.960;5.886;2023-04-03T15:05:44;9.10;83.30
36800;DHT22;22752;51.960;5.886;2023-04-03T15:08:26;9.10;82.70
36800;DHT22;22752;51.960;5.886;2023-04-03T15:10:54;9.00;83.80
36800;DHT22;22752;51.960;5.886;2023-04-03T15:13:21;9.00;85.10
36800;DHT22;22752;51.960;5.886;2023-04-03T15:15:48;9.00;82.90
36800;DHT22;22752;51.960;5.886;2023-04-03T15:18:26;9.00;83.40
36800;DHT22;22752;51.960;5.886;2023-04-03T15:20:53;8.90;84.20
36800;DHT22;22752;51.960;5.886;2023-04-03T15:23:19;8.90;85.20
36800;DHT22;22752;51.960;5.886;2023-04-03T15:25:46;8.90;86.10
36800;DHT22;22752;51.960;5.886;2023-04-03T15:28:29;8.90;86.70
36800;DHT22;22752;51.960;5.886;2023-04-03T15:30:55;8.90;85.90
36800;DHT22;22752;51.960;5.886;2023-04-03T15:33:21;8.90;85.50
36800;DHT22;22752;51.960;5.886;2023-04-03T15:35:47;8.90;85.50
36800;DHT22;22752;51.960;5.886;2023-04-03T15:38:13;8.90;86.40
36800;DHT22;22752;51.960;5.886;2023-04-03T15:40:39;8.90;86.40
36800;DHT22;22752;51.960;5.886;2023-04-03T15:43:06;8.90;86.20
36800;DHT22;22752;51.960;5.886;2023-04-03T15:45:33;8.90;85.50
36800;DHT22;22752;51.960;5.886;2023-04-03T15:48:00;8.90;86.50
36800;DHT22;22752;51.960;5.886;2023-04-03T15:50:25;8.90;86.10
36800;DHT22;22752;51.960;5.886;2023-04-03T15:52:52;8.80;86.30
36800;DHT22;22752;51.960;5.886;2023-04-03T15:55:28;8.80;86.50
36800;DHT22;22752;51.960;5.886;2023-04-03T15:57:53;8.80;88.10
36800;DHT22;22752;51.960;5.886;2023-04-03T16:00:20;8.80;88.10
36800;DHT22;22752;51.960;5.886;2023-04-03T16:02:47;8.80;88.20
36800;DHT22;22752;51.960;5.886;2023-04-03T16:05:23;8.70;88.90
36800;DHT22;22752;51.960;5.886;2023-04-03T16:07:50;8.80;87.20
36800;DHT22;22752;51.960;5.886;2023-04-03T16:10:17;8.80;85.70
36800;DHT22;22752;51.960;5.886;2023-04-03T16:12:44;8.70;86.00
36800;DHT22;22752;51.960;5.886;2023-04-03T16:15:10;8.70;86.20
36800;DHT22;22752;51.960;5.886;2023-04-03T16:17:37;8.70;86.90
36800;DHT22;22752;51.960;5.886;2023-04-03T16:20:04;8.60;85.70
36800;DHT22;22752;51.960;5.886;2023-04-03T16:22:30;8.50;86.20
36800;DHT22;22752;51.960;5.886;2023-04-03T16:24:56;8.60;87.40
36800;DHT22;22752;51.960;5.886;2023-04-03T16:27:22;8.50;87.80
36800;DHT22;22752;51.960;5.886;2023-04-03T16:29:55;8.50;87.70
36800;DHT22;22752;51.960;5.886;2023-04-03T16:32:21;8.50;87.00
36800;DHT22;22752;51.960;5.886;2023-04-03T16:34:48;8.50;86.50
36800;DHT22;22752;51.960;5.886;2023-04-03T16:37:14;8.50;86.10
36800;DHT22;22752;51.960;5.886;2023-04-03T16:39:40;8.40;86.70
36800;DHT22;22752;51.960;5.886;2023-04-03T16:42:05;8.40;88.20
36800;DHT22;22752;51.960;5.886;2023-04-03T16:44:31;8.40;87.20
36800;DHT22;22752;51.960;5.886;2023-04-03T16:46:57;8.40;87.00
36800;DHT22;22752;51.960;5.886;2023-04-03T16:49:22;8.30;87.00
36800;DHT22;22752;51.960;5.886;2023-04-03T16:51:49;8.30;87.30
36800;DHT22;22752;51.960;5.886;2023-04-03T16:54:14;8.30;87.50
36800;DHT22;22752;51.960;5.886;2023-04-03T16:56:40;8.30;88.20
36800;DHT22;22752;51.960;5.886;2023-04-03T16:59:06;8.30;87.10
36800;DHT22;22752;51.960;5.886;2023-04-03T17:01:32;8.30;87.30
36800;DHT22;22752;51.960;5.886;2023-04-03T17:03:58;8.20;88.40
36800;DHT22;22752;51.960;5.886;2023-04-03T17:06:24;8.20;88.70
36800;DHT22;22752;51.960;5.886;2023-04-03T17:08:51;8.20;87.90
36800;DHT22;22752;51.960;5.886;2023-04-03T17:11:17;8.20;88.50
36800;DHT22;22752;51.960;5.886;2023-04-03T17:13:43;8.10;89.10
36800;DHT22;22752;51.960;5.886;2023-04-03T17:16:13;8.10;88.90
36800;DHT22;22752;51.960;5.886;2023-04-03T17:18:39;8.10;89.30
36800;DHT22;22752;51.960;5.886;2023-04-03T17:21:05;8.00;89.60
36800;DHT22;22752;51.960;5.886;2023-04-03T17:23:32;8.00;89.70
36800;DHT22;22752;51.960;5.886;2023-04-03T17:26:00;8.00;90.00
36800;DHT22;22752;51.960;5.886;2023-04-03T17:28:26;8.00;90.10
36800;DHT22;22752;51.960;5.886;2023-04-03T17:30:59;8.00;89.90
36800;DHT22;22752;51.960;5.886;2023-04-03T17:33:26;7.90;90.10
36800;DHT22;22752;51.960;5.886;2023-04-03T17:35:55;7.80;89.80
36800;DHT22;22752;51.960;5.886;2023-04-03T17:38:20;7.80;89.60
36800;DHT22;22752;51.960;5.886;2023-04-03T17:40:46;7.70;89.60
36800;DHT22;22752;51.960;5.886;2023-04-03T17:43:12;7.70;89.50
36800;DHT22;22752;51.960;5.886;2023-04-03T17:45:38;7.70;89.70